sensor_id;sensor_type;location;lat;lon;timestamp;P1;durP1;ratioP1;P2;durP2;ratioP2
69381;SDS011;56560;50.692;12.844;2023-03-23T00:02:11;3.85;;;1.25;;
69381;SDS011;56560;50.692;12.844;2023-03-23T00:04:36;2.00;;;1.20;;
69381;SDS011;56560;50.692;12.844;2023-03-23T00:07:02;3.25;;;1.20;;
69381;SDS011;56560;50.692;12.844;2023-03-23T00:09:28;3.97;;;1.37;;
69381;SDS011;56560;50.692;12.844;2023-03-23T00:11:55;3.90;;;1.20;;
69381;SDS011;56560;50.692;12.844;2023-03-23T00:14:22;3.85;;;1.50;;
69381;SDS011;56560;50.692;12.844;2023-03-23T00:16:48;3.45;;;1.20;;
69381;SDS011;56560;50.692;12.844;2023-03-23T00:19:15;3.10;;;1.30;;
69381;SDS011;56560;50.692;12.844;2023-03-23T00:21:44;3.70;;;1.20;;
69381;SDS011;56560;50.692;12.844;2023-03-23T00:26:40;2.47;;;1.30;;
69381;SDS011;56560;50.692;12.844;2023-03-23T00:29:29;2.95;;;0.90;;
69381;SDS011;56560;50.692;12.844;2023-03-23T00:31:54;5.43;;;1.27;;
69381;SDS011;56560;50.692;12.844;2023-03-23T00:34:24;3.13;;;1.20;;
69381;SDS011;56560;50.692;12.844;2023-03-23T00:36:51;4.07;;;1.40;;
69381;SDS011;56560;50.692;12.844;2023-03-23T00:39:21;3.30;;;1.30;;
69381;SDS011;56560;50.692;12.844;2023-03-23T00:41:49;2.47;;;1.23;;
69381;SDS011;56560;50.692;12.844;2023-03-23T00:44:15;1.85;;;0.93;;
69381;SDS011;56560;50.692;12.844;2023-03-23T00:46:44;1.87;;;0.90;;
69381;SDS011;56560;50.692;12.844;2023-03-23T00:49:11;3.80;;;1.30;;
69381;SDS011;56560;50.692;12.844;2023-03-23T00:51:38;3.33;;;1.30;;
69381;SDS011;56560;50.692;12.844;2023-03-23T00:54:05;2.70;;;1.10;;
69381;SDS011;56560;50.692;12.844;2023-03-23T00:56:30;3.43;;;1.17;;
69381;SDS011;56560;50.692;12.844;2023-03-23T00:58:56;4.45;;;1.20;;
69381;SDS011;56560;50.692;12.844;2023-03-23T01:01:22;3.73;;;1.43;;
69381;SDS011;56560;50.692;12.844;2023-03-23T01:03:48;1.77;;;1.00;;
69381;SDS011;56560;50.692;12.844;2023-03-23T01:06:14;4.20;;;1.40;;
69381;SDS011;56560;50.692;12.844;2023-03-23T01:08:40;2.60;;;1.25;;
69381;SDS011;56560;50.692;12.844;2023-03-23T01:11:11;2.28;;;1.05;;
69381;SDS011;56560;50.692;12.844;2023-03-23T01:13:38;2.47;;;1.10;;
69381;SDS011;56560;50.692;12.844;2023-03-23T01:16:05;3.13;;;1.20;;
69381;SDS011;56560;50.692;12.844;2023-03-23T01:18:31;3.17;;;1.23;;
69381;SDS011;56560;50.692;12.844;2023-03-23T01:20:57;4.83;;;1.30;;
69381;SDS011;56560;50.692;12.844;2023-03-23T01:23:22;2.63;;;1.30;;
69381;SDS011;56560;50.692;12.844;2023-03-23T01:25:48;2.90;;;0.90;;
69381;SDS011;56560;50.692;12.844;2023-03-23T01:28:14;2.72;;;1.20;;
69381;SDS011;56560;50.692;12.844;2023-03-23T01:30:40;2.40;;;1.20;;
69381;SDS011;56560;50.692;12.844;2023-03-23T01:33:06;2.73;;;1.07;;
69381;SDS011;56560;50.692;12.844;2023-03-23T01:35:32;2.53;;;1.17;;
69381;SDS011;56560;50.692;12.844;2023-03-23T01:37:57;5.30;;;1.40;;
69381;SDS011;56560;50.692;12.844;2023-03-23T01:40:23;4.30;;;1.40;;
69381;SDS011;56560;50.692;12.844;2023-03-23T01:42:52;4.30;;;1.20;;
69381;SDS011;56560;50.692;12.844;2023-03-23T01:45:30;2.60;;;1.10;;
69381;SDS011;56560;50.692;12.844;2023-03-23T01:48:01;3.08;;;1.20;;
69381;SDS011;56560;50.692;12.844;2023-03-23T01:50:52;4.07;;;1.38;;
69381;SDS011;56560;50.692;12.844;2023-03-23T01:53:36;2.38;;;1.10;;
69381;SDS011;56560;50.692;12.844;2023-03-23T01:56:10;5.18;;;1.40;;
69381;SDS011;56560;50.692;12.844;2023-03-23T01:58:39;2.95;;;1.30;;
69381;SDS011;56560;50.692;12.844;2023-03-23T02:01:08;3.65;;;1.40;;
69381;SDS011;56560;50.692;12.844;2023-03-23T02:03:38;2.92;;;1.10;;
69381;SDS011;56560;50.692;12.844;2023-03-23T02:06:06;3.17;;;1.40;;
69381;SDS011;56560;50.692;12.844;2023-03-23T02:08:32;3.72;;;1.40;;
69381;SDS011;56560;50.692;12.844;2023-03-23T02:11:00;3.33;;;1.30;;
69381;SDS011;56560;50.692;12.844;2023-03-23T02:13:26;3.92;;;1.30;;
69381;SDS011;56560;50.692;12.844;2023-03-23T02:18:45;2.63;;;1.20;;
69381;SDS011;56560;50.692;12.844;2023-03-23T02:35:29;3.92;;;1.40;;
69381;SDS011;56560;50.692;12.844;2023-03-23T02:38:11;2.58;;;1.30;;
69381;SDS011;56560;50.692;12.844;2023-03-23T02:40:42;2.75;;;1.38;;
69381;SDS011;56560;50.692;12.844;2023-03-23T02:43:12;1.95;;;1.05;;
69381;SDS011;56560;50.692;12.844;2023-03-23T02:45:40;5.27;;;1.30;;
69381;SDS011;56560;50.692;12.844;2023-03-23T02:48:08;3.55;;;1.40;;
69381;SDS011;56560;50.692;12.844;2023-03-23T02:50:36;3.58;;;1.50;;
69381;SDS011;56560;50.692;12.844;2023-03-23T02:53:05;3.50;;;1.40;;
69381;SDS011;56560;50.692;12.844;2023-03-23T02:55:34;3.63;;;1.52;;
69381;SDS011;56560;50.692;12.844;2023-03-23T02:58:01;2.60;;;1.13;;
69381;SDS011;56560;50.692;12.844;2023-03-23T03:00:28;5.57;;;1.50;;
69381;SDS011;56560;50.692;12.844;2023-03-23T03:02:55;4.30;;;1.10;;
69381;SDS011;56560;50.692;12.844;2023-03-23T03:05:26;4.07;;;1.40;;
69381;SDS011;56560;50.692;12.844;2023-03-23T03:13:52;4.18;;;1.33;;
69381;SDS011;56560;50.692;12.844;2023-03-23T03:17:07;3.13;;;1.33;;
69381;SDS011;56560;50.692;12.844;2023-03-23T03:21:50;3.83;;;1.38;;
69381;SDS011;56560;50.692;12.844;2023-03-23T03:24:18;4.00;;;1.40;;
69381;SDS011;56560;50.692;12.844;2023-03-23T03:26:47;2.25;;;1.10;;
69381;SDS011;56560;50.692;12.844;2023-03-23T03:29:16;4.97;;;1.50;;
69381;SDS011;56560;50.692;12.844;2023-03-23T03:31:45;5.82;;;1.80;;
69381;SDS011;56560;50.692;12.844;2023-03-23T03:34:13;3.88;;;1.80;;
69381;SDS011;56560;50.692;12.844;2023-03-23T03:36:42;5.90;;;1.80;;
69381;SDS011;56560;50.692;12.844;2023-03-23T03:39:10;3.45;;;1.52;;
69381;SDS011;56560;50.692;12.844;2023-03-23T03:41:41;3.85;;;1.42;;
69381;SDS011;56560;50.692;12.844;2023-03-23T03:44:07;4.82;;;1.80;;
69381;SDS011;56560;50.692;12.844;2023-03-23T03:46:34;5.15;;;1.40;;
69381;SDS011;56560;50.692;12.844;2023-03-23T03:49:00;4.93;;;1.80;;
69381;SDS011;56560;50.692;12.844;2023-03-23T03:51:28;5.03;;;1.60;;
69381;SDS011;56560;50.692;12.844;2023-03-23T03:53:54;5.85;;;2.30;;
69381;SDS011;56560;50.692;12.844;2023-03-23T03:56:20;4.43;;;1.42;;
69381;SDS011;56560;50.692;12.844;2023-03-23T03:58:47;5.75;;;1.90;;
69381;SDS011;56560;50.692;12.844;2023-03-23T04:01:14;3.53;;;1.67;;
69381;SDS011;56560;50.692;12.844;2023-03-23T04:03:41;4.65;;;1.80;;
69381;SDS011;56560;50.692;12.844;2023-03-23T04:06:07;5.35;;;2.00;;
69381;SDS011;56560;50.692;12.844;2023-03-23T04:08:34;4.28;;;1.52;;
69381;SDS011;56560;50.692;12.844;2023-03-23T04:11:02;4.60;;;1.63;;
69381;SDS011;56560;50.692;12.844;2023-03-23T04:13:29;4.20;;;1.67;;
69381;SDS011;56560;50.692;12.844;2023-03-23T04:15:55;4.60;;;1.80;;
69381;SDS011;56560;50.692;12.844;2023-03-23T04:18:21;6.07;;;2.10;;
69381;SDS011;56560;50.692;12.844;2023-03-23T04:20:47;4.20;;;1.70;;
69381;SDS011;56560;50.692;12.844;2023-03-23T04:23:14;4.18;;;1.60;;
69381;SDS011;56560;50.692;12.844;2023-03-23T04:25:45;3.97;;;1.37;;
69381;SDS011;56560;50.692;12.844;2023-03-23T04:28:12;6.00;;;1.98;;
69381;SDS011;56560;50.692;12.844;2023-03-23T04:30:38;5.47;;;1.90;;
69381;SDS011;56560;50.692;12.844;2023-03-23T04:33:08;3.58;;;1.58;;
69381;SDS011;56560;50.692;12.844;2023-03-23T04:35:39;3.92;;;1.52;;
69381;SDS011;56560;50.692;12.844;2023-03-23T04:38:06;3.43;;;1.40;;
69381;SDS011;56560;50.692;12.844;2023-03-23T04:40:32;5.07;;;1.60;;
69381;SDS011;56560;50.692;12.844;2023-03-23T04:43:01;5.10;;;1.98;;
69381;SDS011;56560;50.692;12.844;2023-03-23T04:45:30;6.72;;;2.00;;
69381;SDS011;56560;50.692;12.844;2023-03-23T04:47:57;3.63;;;1.45;;
69381;SDS011;56560;50.692;12.844;2023-03-23T04:50:24;5.13;;;1.70;;
69381;SDS011;56560;50.692;12.844;2023-03-23T04:52:52;5.80;;;1.80;;
69381;SDS011;56560;50.692;12.844;2023-03-23T04:55:21;5.55;;;1.90;;
69381;SDS011;56560;50.692;12.844;2023-03-23T04:57:47;6.15;;;1.70;;
69381;SDS011;56560;50.692;12.844;2023-03-23T05:00:13;4.37;;;1.57;;
69381;SDS011;56560;50.692;12.844;2023-03-23T05:02:41;4.25;;;1.50;;
69381;SDS011;56560;50.692;12.844;2023-03-23T05:05:12;4.00;;;1.45;;
69381;SDS011;56560;50.692;12.844;2023-03-23T05:07:38;4.85;;;1.63;;
69381;SDS011;56560;50.692;12.844;2023-03-23T05:10:05;4.32;;;1.67;;
69381;SDS011;56560;50.692;12.844;2023-03-23T05:12:32;5.13;;;1.50;;
69381;SDS011;56560;50.692;12.844;2023-03-23T05:14:58;3.53;;;1.50;;
69381;SDS011;56560;50.692;12.844;2023-03-23T05:17:24;4.28;;;1.52;;
69381;SDS011;56560;50.692;12.844;2023-03-23T05:19:50;4.97;;;1.90;;
69381;SDS011;56560;50.692;12.844;2023-03-23T05:22:17;2.97;;;1.40;;
69381;SDS011;56560;50.692;12.844;2023-03-23T05:24:45;5.50;;;1.90;;
69381;SDS011;56560;50.692;12.844;2023-03-23T05:27:16;3.90;;;1.42;;
69381;SDS011;56560;50.692;12.844;2023-03-23T05:29:43;6.57;;;1.80;;
69381;SDS011;56560;50.692;12.844;2023-03-23T05:32:15;5.68;;;1.70;;
69381;SDS011;56560;50.692;12.844;2023-03-23T05:34:42;4.93;;;1.50;;
69381;SDS011;56560;50.692;12.844;2023-03-23T05:37:08;3.33;;;1.38;;
69381;SDS011;56560;50.692;12.844;2023-03-23T05:39:34;3.90;;;1.65;;
69381;SDS011;56560;50.692;12.844;2023-03-23T05:42:01;4.10;;;1.52;;
69381;SDS011;56560;50.692;12.844;2023-03-23T05:44:29;3.17;;;1.40;;
69381;SDS011;56560;50.692;12.844;2023-03-23T05:46:55;4.70;;;1.90;;
69381;SDS011;56560;50.692;12.844;2023-03-23T05:49:21;4.35;;;1.80;;
69381;SDS011;56560;50.692;12.844;2023-03-23T05:51:47;5.55;;;1.70;;
69381;SDS011;56560;50.692;12.844;2023-03-23T05:54:14;3.63;;;1.73;;
69381;SDS011;56560;50.692;12.844;2023-03-23T05:56:41;4.82;;;1.50;;
69381;SDS011;56560;50.692;12.844;2023-03-23T05:59:07;4.68;;;1.40;;
69381;SDS011;56560;50.692;12.844;2023-03-23T06:01:33;5.95;;;1.70;;
69381;SDS011;56560;50.692;12.844;2023-03-23T06:03:59;4.93;;;1.75;;
69381;SDS011;56560;50.692;12.844;2023-03-23T06:06:25;4.83;;;1.80;;
69381;SDS011;56560;50.692;12.844;2023-03-23T06:08:51;3.38;;;1.42;;
69381;SDS011;56560;50.692;12.844;2023-03-23T06:11:17;5.60;;;1.80;;
69381;SDS011;56560;50.692;12.844;2023-03-23T06:13:43;4.65;;;1.70;;
69381;SDS011;56560;50.692;12.844;2023-03-23T06:16:09;3.60;;;1.50;;
69381;SDS011;56560;50.692;12.844;2023-03-23T06:18:36;3.55;;;1.60;;
69381;SDS011;56560;50.692;12.844;2023-03-23T06:21:05;5.95;;;1.90;;
69381;SDS011;56560;50.692;12.844;2023-03-23T06:23:32;5.30;;;1.85;;
69381;SDS011;56560;50.692;12.844;2023-03-23T06:26:03;3.80;;;1.60;;
69381;SDS011;56560;50.692;12.844;2023-03-23T06:28:30;4.73;;;1.80;;
69381;SDS011;56560;50.692;12.844;2023-03-23T06:31:00;6.53;;;1.70;;
69381;SDS011;56560;50.692;12.844;2023-03-23T06:33:27;5.55;;;1.70;;
69381;SDS011;56560;50.692;12.844;2023-03-23T06:35:53;4.15;;;1.42;;
69381;SDS011;56560;50.692;12.844;2023-03-23T06:38:19;3.57;;;1.50;;
69381;SDS011;56560;50.692;12.844;2023-03-23T06:40:44;3.85;;;1.60;;
69381;SDS011;56560;50.692;12.844;2023-03-23T06:43:12;6.03;;;1.70;;
69381;SDS011;56560;50.692;12.844;2023-03-23T06:45:38;3.83;;;1.50;;
69381;SDS011;56560;50.692;12.844;2023-03-23T06:48:05;5.07;;;1.77;;
69381;SDS011;56560;50.692;12.844;2023-03-23T06:50:31;4.63;;;1.70;;
69381;SDS011;56560;50.692;12.844;2023-03-23T06:52:57;4.53;;;1.70;;
69381;SDS011;56560;50.692;12.844;2023-03-23T06:55:23;6.27;;;1.70;;
69381;SDS011;56560;50.692;12.844;2023-03-23T06:57:48;6.53;;;1.83;;
69381;SDS011;56560;50.692;12.844;2023-03-23T07:00:14;4.28;;;1.58;;
69381;SDS011;56560;50.692;12.844;2023-03-23T07:02:43;3.90;;;1.60;;
69381;SDS011;56560;50.692;12.844;2023-03-23T07:05:11;5.80;;;2.10;;
69381;SDS011;56560;50.692;12.844;2023-03-23T07:07:38;3.83;;;1.50;;
69381;SDS011;56560;50.692;12.844;2023-03-23T07:10:05;4.63;;;1.75;;
69381;SDS011;56560;50.692;12.844;2023-03-23T07:12:34;3.53;;;1.67;;
69381;SDS011;56560;50.692;12.844;2023-03-23T07:15:01;3.67;;;1.52;;
69381;SDS011;56560;50.692;12.844;2023-03-23T07:17:33;4.77;;;2.03;;
69381;SDS011;56560;50.692;12.844;2023-03-23T07:19:58;3.55;;;1.52;;
69381;SDS011;56560;50.692;12.844;2023-03-23T07:22:24;4.38;;;1.60;;
69381;SDS011;56560;50.692;12.844;2023-03-23T07:24:50;4.37;;;1.60;;
69381;SDS011;56560;50.692;12.844;2023-03-23T07:27:15;4.18;;;1.55;;
69381;SDS011;56560;50.692;12.844;2023-03-23T07:29:41;5.40;;;1.80;;
69381;SDS011;56560;50.692;12.844;2023-03-23T07:32:08;4.65;;;1.77;;
69381;SDS011;56560;50.692;12.844;2023-03-23T07:34:36;5.30;;;1.90;;
69381;SDS011;56560;50.692;12.844;2023-03-23T07:37:02;4.85;;;1.90;;
69381;SDS011;56560;50.692;12.844;2023-03-23T07:39:28;3.85;;;1.70;;
69381;SDS011;56560;50.692;12.844;2023-03-23T07:41:54;4.72;;;1.90;;
69381;SDS011;56560;50.692;12.844;2023-03-23T07:44:20;6.10;;;2.13;;
69381;SDS011;56560;50.692;12.844;2023-03-23T07:46:47;6.60;;;2.30;;
69381;SDS011;56560;50.692;12.844;2023-03-23T07:49:12;5.32;;;1.85;;
69381;SDS011;56560;50.692;12.844;2023-03-23T07:51:38;6.63;;;1.98;;
69381;SDS011;56560;50.692;12.844;2023-03-23T07:54:05;6.40;;;2.10;;
69381;SDS011;56560;50.692;12.844;2023-03-23T07:56:32;7.97;;;1.90;;
69381;SDS011;56560;50.692;12.844;2023-03-23T07:59:02;4.53;;;1.80;;
69381;SDS011;56560;50.692;12.844;2023-03-23T08:01:29;7.45;;;1.90;;
69381;SDS011;56560;50.692;12.844;2023-03-23T08:03:55;5.63;;;1.80;;
69381;SDS011;56560;50.692;12.844;2023-03-23T08:06:23;4.78;;;1.90;;
69381;SDS011;56560;50.692;12.844;2023-03-23T08:08:50;4.63;;;1.70;;
69381;SDS011;56560;50.692;12.844;2023-03-23T08:11:16;4.95;;;1.70;;
69381;SDS011;56560;50.692;12.844;2023-03-23T08:13:43;6.47;;;2.25;;
69381;SDS011;56560;50.692;12.844;2023-03-23T08:16:09;5.30;;;1.80;;
69381;SDS011;56560;50.692;12.844;2023-03-23T08:18:36;4.85;;;1.77;;
69381;SDS011;56560;50.692;12.844;2023-03-23T08:21:06;6.00;;;2.10;;
69381;SDS011;56560;50.692;12.844;2023-03-23T08:23:34;5.53;;;1.95;;
69381;SDS011;56560;50.692;12.844;2023-03-23T08:26:01;5.30;;;2.03;;
69381;SDS011;56560;50.692;12.844;2023-03-23T08:28:32;6.60;;;2.23;;
69381;SDS011;56560;50.692;12.844;2023-03-23T08:30:59;9.55;;;3.58;;
69381;SDS011;56560;50.692;12.844;2023-03-23T08:33:25;9.63;;;3.40;;
69381;SDS011;56560;50.692;12.844;2023-03-23T08:35:56;5.53;;;2.10;;
69381;SDS011;56560;50.692;12.844;2023-03-23T08:38:23;5.60;;;1.70;;
69381;SDS011;56560;50.692;12.844;2023-03-23T08:40:49;6.87;;;2.00;;
69381;SDS011;56560;50.692;12.844;2023-03-23T08:43:16;11.05;;;4.03;;
69381;SDS011;56560;50.692;12.844;2023-03-23T08:45:42;12.45;;;4.95;;
69381;SDS011;56560;50.692;12.844;2023-03-23T08:48:07;10.45;;;4.22;;
69381;SDS011;56560;50.692;12.844;2023-03-23T08:50:34;9.77;;;2.58;;
69381;SDS011;56560;50.692;12.844;2023-03-23T08:53:00;12.68;;;5.05;;
69381;SDS011;56560;50.692;12.844;2023-03-23T08:55:26;15.93;;;7.20;;
69381;SDS011;56560;50.692;12.844;2023-03-23T08:57:54;9.60;;;3.92;;
69381;SDS011;56560;50.692;12.844;2023-03-23T09:00:20;26.17;;;13.30;;
69381;SDS011;56560;50.692;12.844;2023-03-23T09:02:49;16.77;;;8.13;;
69381;SDS011;56560;50.692;12.844;2023-03-23T09:05:18;6.90;;;2.20;;
69381;SDS011;56560;50.692;12.844;2023-03-23T09:07:46;7.88;;;2.90;;
69381;SDS011;56560;50.692;12.844;2023-03-23T09:10:14;10.73;;;3.33;;
69381;SDS011;56560;50.692;12.844;2023-03-23T09:12:41;7.35;;;2.63;;
69381;SDS011;56560;50.692;12.844;2023-03-23T09:15:08;8.00;;;2.88;;
69381;SDS011;56560;50.692;12.844;2023-03-23T09:17:37;7.32;;;2.90;;
69381;SDS011;56560;50.692;12.844;2023-03-23T09:20:06;7.25;;;2.70;;
69381;SDS011;56560;50.692;12.844;2023-03-23T09:22:40;7.17;;;2.60;;
69381;SDS011;56560;50.692;12.844;2023-03-23T09:25:08;6.78;;;2.47;;
69381;SDS011;56560;50.692;12.844;2023-03-23T09:27:35;6.97;;;2.40;;
69381;SDS011;56560;50.692;12.844;2023-03-23T09:30:20;7.50;;;2.80;;
69381;SDS011;56560;50.692;12.844;2023-03-23T09:32:46;6.82;;;2.60;;
69381;SDS011;56560;50.692;12.844;2023-03-23T09:35:13;4.90;;;1.70;;
69381;SDS011;56560;50.692;12.844;2023-03-23T09:37:41;6.03;;;2.10;;
69381;SDS011;56560;50.692;12.844;2023-03-23T09:40:14;7.35;;;2.03;;
69381;SDS011;56560;50.692;12.844;2023-03-23T09:42:59;5.90;;;2.10;;
69381;SDS011;56560;50.692;12.844;2023-03-23T09:45:58;5.85;;;2.03;;
69381;SDS011;56560;50.692;12.844;2023-03-23T09:50:52;7.93;;;2.45;;
69381;SDS011;56560;50.692;12.844;2023-03-23T09:53:36;3.88;;;1.55;;
69381;SDS011;56560;50.692;12.844;2023-03-23T09:56:08;5.97;;;2.20;;
69381;SDS011;56560;50.692;12.844;2023-03-23T10:03:57;5.85;;;2.13;;
69381;SDS011;56560;50.692;12.844;2023-03-23T10:06:32;5.97;;;2.50;;
69381;SDS011;56560;50.692;12.844;2023-03-23T10:08:58;6.63;;;2.40;;
69381;SDS011;56560;50.692;12.844;2023-03-23T10:22:54;7.97;;;2.55;;
69381;SDS011;56560;50.692;12.844;2023-03-23T10:25:31;18.10;;;6.95;;
69381;SDS011;56560;50.692;12.844;2023-03-23T10:28:13;6.35;;;2.20;;
69381;SDS011;56560;50.692;12.844;2023-03-23T10:30:51;5.20;;;1.80;;
69381;SDS011;56560;50.692;12.844;2023-03-23T10:38:38;5.05;;;1.88;;
69381;SDS011;56560;50.692;12.844;2023-03-23T10:43:40;4.30;;;1.80;;
69381;SDS011;56560;50.692;12.844;2023-03-23T10:49:02;5.03;;;1.90;;
69381;SDS011;56560;50.692;12.844;2023-03-23T10:51:35;4.03;;;1.75;;
69381;SDS011;56560;50.692;12.844;2023-03-23T10:54:03;5.35;;;2.00;;
69381;SDS011;56560;50.692;12.844;2023-03-23T10:56:38;6.57;;;1.77;;
69381;SDS011;56560;50.692;12.844;2023-03-23T11:02:14;8.35;;;2.22;;
69381;SDS011;56560;50.692;12.844;2023-03-23T11:04:44;5.63;;;2.28;;
69381;SDS011;56560;50.692;12.844;2023-03-23T11:07:27;4.68;;;2.03;;
69381;SDS011;56560;50.692;12.844;2023-03-23T11:09:56;6.28;;;2.40;;
69381;SDS011;56560;50.692;12.844;2023-03-23T11:12:23;5.30;;;1.80;;
69381;SDS011;56560;50.692;12.844;2023-03-23T11:14:51;5.53;;;2.20;;
69381;SDS011;56560;50.692;12.844;2023-03-23T11:17:26;6.40;;;2.75;;
69381;SDS011;56560;50.692;12.844;2023-03-23T11:19:52;9.43;;;3.00;;
69381;SDS011;56560;50.692;12.844;2023-03-23T11:22:24;6.40;;;2.10;;
69381;SDS011;56560;50.692;12.844;2023-03-23T11:24:53;6.93;;;2.70;;
69381;SDS011;56560;50.692;12.844;2023-03-23T11:27:21;5.45;;;2.33;;
69381;SDS011;56560;50.692;12.844;2023-03-23T11:32:18;7.55;;;2.78;;
69381;SDS011;56560;50.692;12.844;2023-03-23T11:34:59;8.13;;;2.72;;
69381;SDS011;56560;50.692;12.844;2023-03-23T11:37:33;7.25;;;2.70;;
69381;SDS011;56560;50.692;12.844;2023-03-23T11:42:43;6.40;;;2.10;;
69381;SDS011;56560;50.692;12.844;2023-03-23T11:50:33;5.93;;;2.40;;
69381;SDS011;56560;50.692;12.844;2023-03-23T11:56:13;5.45;;;1.92;;
69381;SDS011;56560;50.692;12.844;2023-03-23T11:58:50;6.30;;;2.35;;
69381;SDS011;56560;50.692;12.844;2023-03-23T12:01:24;9.40;;;2.75;;
69381;SDS011;56560;50.692;12.844;2023-03-23T12:07:06;5.18;;;2.28;;
69381;SDS011;56560;50.692;12.844;2023-03-23T12:21:29;7.13;;;2.22;;
69381;SDS011;56560;50.692;12.844;2023-03-23T12:32:47;6.85;;;2.33;;
69381;SDS011;56560;50.692;12.844;2023-03-23T12:35:39;5.82;;;2.13;;
69381;SDS011;56560;50.692;12.844;2023-03-23T12:41:05;6.78;;;2.38;;
69381;SDS011;56560;50.692;12.844;2023-03-23T12:43:52;5.03;;;2.05;;
69381;SDS011;56560;50.692;12.844;2023-03-23T12:49:13;5.68;;;1.77;;
69381;SDS011;56560;50.692;12.844;2023-03-23T12:52:10;6.38;;;2.13;;
69381;SDS011;56560;50.692;12.844;2023-03-23T12:54:47;4.85;;;2.10;;
69381;SDS011;56560;50.692;12.844;2023-03-23T13:00:20;5.82;;;2.10;;
69381;SDS011;56560;50.692;12.844;2023-03-23T13:03:01;5.38;;;1.77;;
69381;SDS011;56560;50.692;12.844;2023-03-23T13:08:25;9.45;;;2.38;;
69381;SDS011;56560;50.692;12.844;2023-03-23T13:10:59;7.38;;;2.33;;
69381;SDS011;56560;50.692;12.844;2023-03-23T13:21:43;8.13;;;2.80;;
69381;SDS011;56560;50.692;12.844;2023-03-23T13:24:23;7.30;;;2.60;;
69381;SDS011;56560;50.692;12.844;2023-03-23T13:26:52;7.10;;;2.60;;
69381;SDS011;56560;50.692;12.844;2023-03-23T13:29:22;7.30;;;2.60;;
69381;SDS011;56560;50.692;12.844;2023-03-23T13:31:50;5.93;;;2.50;;
69381;SDS011;56560;50.692;12.844;2023-03-23T13:34:24;6.40;;;2.42;;
69381;SDS011;56560;50.692;12.844;2023-03-23T13:39:24;4.63;;;2.00;;
69381;SDS011;56560;50.692;12.844;2023-03-23T13:49:49;7.65;;;2.50;;
69381;SDS011;56560;50.692;12.844;2023-03-23T13:52:21;7.10;;;2.42;;
69381;SDS011;56560;50.692;12.844;2023-03-23T13:57:51;5.60;;;2.10;;
69381;SDS011;56560;50.692;12.844;2023-03-23T14:05:35;10.00;;;3.53;;
69381;SDS011;56560;50.692;12.844;2023-03-23T14:10:39;14.15;;;4.40;;
69381;SDS011;56560;50.692;12.844;2023-03-23T14:13:23;6.82;;;2.42;;
69381;SDS011;56560;50.692;12.844;2023-03-23T14:16:00;8.98;;;2.58;;
69381;SDS011;56560;50.692;12.844;2023-03-23T14:18:38;4.70;;;1.90;;
69381;SDS011;56560;50.692;12.844;2023-03-23T14:21:12;7.97;;;2.00;;
69381;SDS011;56560;50.692;12.844;2023-03-23T14:23:40;3.75;;;1.60;;
69381;SDS011;56560;50.692;12.844;2023-03-23T14:26:16;6.97;;;2.40;;
69381;SDS011;56560;50.692;12.844;2023-03-23T14:28:44;3.28;;;1.50;;
69381;SDS011;56560;50.692;12.844;2023-03-23T14:31:22;3.40;;;1.50;;
69381;SDS011;56560;50.692;12.844;2023-03-23T14:33:50;4.35;;;1.85;;
69381;SDS011;56560;50.692;12.844;2023-03-23T14:36:24;4.95;;;2.13;;
69381;SDS011;56560;50.692;12.844;2023-03-23T14:39:03;6.82;;;3.08;;
69381;SDS011;56560;50.692;12.844;2023-03-23T14:41:32;7.10;;;2.47;;
69381;SDS011;56560;50.692;12.844;2023-03-23T14:44:00;22.35;;;9.15;;
69381;SDS011;56560;50.692;12.844;2023-03-23T14:46:27;41.60;;;16.40;;
69381;SDS011;56560;50.692;12.844;2023-03-23T14:48:54;10.88;;;3.70;;
69381;SDS011;56560;50.692;12.844;2023-03-23T14:51:21;40.40;;;17.63;;
69381;SDS011;56560;50.692;12.844;2023-03-23T14:53:47;36.87;;;16.87;;
69381;SDS011;56560;50.692;12.844;2023-03-23T14:56:20;7.97;;;3.05;;
69381;SDS011;56560;50.692;12.844;2023-03-23T14:58:51;10.15;;;3.65;;
69381;SDS011;56560;50.692;12.844;2023-03-23T15:03:58;3.95;;;1.58;;
69381;SDS011;56560;50.692;12.844;2023-03-23T15:06:37;13.27;;;4.40;;
69381;SDS011;56560;50.692;12.844;2023-03-23T15:09:06;7.20;;;2.80;;
69381;SDS011;56560;50.692;12.844;2023-03-23T15:11:37;7.55;;;2.40;;
69381;SDS011;56560;50.692;12.844;2023-03-23T15:14:21;5.75;;;2.67;;
69381;SDS011;56560;50.692;12.844;2023-03-23T15:16:50;6.40;;;2.30;;
69381;SDS011;56560;50.692;12.844;2023-03-23T15:19:33;5.95;;;2.30;;
69381;SDS011;56560;50.692;12.844;2023-03-23T15:22:22;5.05;;;2.25;;
69381;SDS011;56560;50.692;12.844;2023-03-23T15:24:50;7.82;;;2.10;;
69381;SDS011;56560;50.692;12.844;2023-03-23T15:27:26;5.78;;;1.80;;
69381;SDS011;56560;50.692;12.844;2023-03-23T15:29:54;4.70;;;1.70;;
69381;SDS011;56560;50.692;12.844;2023-03-23T15:32:37;4.68;;;1.80;;
69381;SDS011;56560;50.692;12.844;2023-03-23T15:35:10;4.22;;;1.60;;
69381;SDS011;56560;50.692;12.844;2023-03-23T15:37:42;3.80;;;1.60;;
69381;SDS011;56560;50.692;12.844;2023-03-23T15:40:16;7.13;;;1.98;;
69381;SDS011;56560;50.692;12.844;2023-03-23T15:42:45;6.22;;;2.10;;
69381;SDS011;56560;50.692;12.844;2023-03-23T15:52:38;8.27;;;2.80;;
69381;SDS011;56560;50.692;12.844;2023-03-23T15:55:15;6.85;;;2.40;;
69381;SDS011;56560;50.692;12.844;2023-03-23T15:57:49;5.68;;;2.03;;
69381;SDS011;56560;50.692;12.844;2023-03-23T16:00:16;9.73;;;3.30;;
69381;SDS011;56560;50.692;12.844;2023-03-23T16:02:44;10.33;;;3.03;;
69381;SDS011;56560;50.692;12.844;2023-03-23T16:05:12;8.77;;;3.15;;
69381;SDS011;56560;50.692;12.844;2023-03-23T16:07:38;10.38;;;4.45;;
69381;SDS011;56560;50.692;12.844;2023-03-23T16:10:05;11.27;;;4.50;;
69381;SDS011;56560;50.692;12.844;2023-03-23T16:12:41;11.70;;;4.15;;
69381;SDS011;56560;50.692;12.844;2023-03-23T16:15:06;12.32;;;5.25;;
69381;SDS011;56560;50.692;12.844;2023-03-23T16:17:33;12.85;;;6.20;;
69381;SDS011;56560;50.692;12.844;2023-03-23T16:19:59;10.97;;;4.93;;
69381;SDS011;56560;50.692;12.844;2023-03-23T16:22:24;10.52;;;4.43;;
69381;SDS011;56560;50.692;12.844;2023-03-23T16:24:50;15.82;;;6.35;;
69381;SDS011;56560;50.692;12.844;2023-03-23T16:27:16;11.48;;;4.65;;
69381;SDS011;56560;50.692;12.844;2023-03-23T16:29:42;9.70;;;4.13;;
69381;SDS011;56560;50.692;12.844;2023-03-23T16:32:07;13.93;;;5.20;;
69381;SDS011;56560;50.692;12.844;2023-03-23T16:34:33;10.17;;;4.13;;
69381;SDS011;56560;50.692;12.844;2023-03-23T16:36:59;10.70;;;4.75;;
69381;SDS011;56560;50.692;12.844;2023-03-23T16:39:26;8.75;;;3.10;;
69381;SDS011;56560;50.692;12.844;2023-03-23T16:41:51;7.32;;;2.88;;
69381;SDS011;56560;50.692;12.844;2023-03-23T16:44:17;9.07;;;3.50;;
69381;SDS011;56560;50.692;12.844;2023-03-23T16:46:43;6.88;;;2.60;;
69381;SDS011;56560;50.692;12.844;2023-03-23T16:49:09;6.23;;;2.77;;
69381;SDS011;56560;50.692;12.844;2023-03-23T16:51:34;5.15;;;2.42;;
69381;SDS011;56560;50.692;12.844;2023-03-23T16:54:00;8.53;;;3.07;;
69381;SDS011;56560;50.692;12.844;2023-03-23T16:56:26;8.80;;;3.50;;
69381;SDS011;56560;50.692;12.844;2023-03-23T16:58:51;8.70;;;3.60;;
69381;SDS011;56560;50.692;12.844;2023-03-23T17:01:17;10.60;;;4.00;;
69381;SDS011;56560;50.692;12.844;2023-03-23T17:03:43;14.02;;;4.55;;
69381;SDS011;56560;50.692;12.844;2023-03-23T17:06:09;8.63;;;3.47;;
69381;SDS011;56560;50.692;12.844;2023-03-23T17:08:35;11.40;;;4.73;;
69381;SDS011;56560;50.692;12.844;2023-03-23T17:11:00;7.13;;;2.78;;
69381;SDS011;56560;50.692;12.844;2023-03-23T17:13:26;9.80;;;4.30;;
69381;SDS011;56560;50.692;12.844;2023-03-23T17:15:52;8.25;;;3.28;;